Terminal Aerodrome Forecast
Issued by NWS

Home | Current Version | Previous Version | Graphics & Text | Print | Product List | Glossary On
Versions: 1 2 3 4 5 6 7 8 9 10 11 12 13 14 15 16 17 18 19 20 21 22
000
FTUS43 KICT 221700
TAFHUT
TAF
KHUT 221720Z 2218/2318 18017G25KT P6SM BKN100
     FM230000 19008KT P6SM VCTS OVC050CB
      TEMPO 2300/2304 5SM -SHRA OVC050
     FM230500 18006KT P6SM BKN050
     FM231100 17005KT 2SM BR BKN008=

USA.gov is the U.S. government's official web portal to all federal, state and local government web resources and services.